sensor_id;sensor_type;location;lat;lon;timestamp;pressure;altitude;pressure_sealevel;temperature;humidity
57628;BME280;43451;49.060;10.616;2022-11-20T00:01:15;96190.22;;;1.69;100.00
57628;BME280;43451;49.060;10.616;2022-11-20T00:03:41;96187.53;;;1.69;100.00
57628;BME280;43451;49.060;10.616;2022-11-20T00:06:10;96187.25;;;1.74;100.00
57628;BME280;43451;49.060;10.616;2022-11-20T00:08:35;96184.59;;;1.74;100.00
57628;BME280;43451;49.060;10.616;2022-11-20T00:11:05;96191.50;;;1.75;100.00
57628;BME280;43451;49.060;10.616;2022-11-20T00:13:30;96193.81;;;1.77;100.00
57628;BME280;43451;49.060;10.616;2022-11-20T00:15:58;96193.31;;;1.71;100.00
57628;BME280;43451;49.060;10.616;2022-11-20T00:18:24;96190.63;;;1.71;100.00
57628;BME280;43451;49.060;10.616;2022-11-20T00:20:50;96194.03;;;1.68;100.00
57628;BME280;43451;49.060;10.616;2022-11-20T00:23:15;96189.84;;;1.71;100.00
57628;BME280;43451;49.060;10.616;2022-11-20T00:25:40;96199.09;;;1.73;100.00
57628;BME280;43451;49.060;10.616;2022-11-20T00:28:06;96189.94;;;1.74;100.00
57628;BME280;43451;49.060;10.616;2022-11-20T00:30:31;96200.31;;;1.76;100.00
57628;BME280;43451;49.060;10.616;2022-11-20T00:32:57;96197.78;;;1.83;100.00
57628;BME280;43451;49.060;10.616;2022-11-20T00:35:23;96209.63;;;1.82;100.00
57628;BME280;43451;49.060;10.616;2022-11-20T00:37:48;96196.16;;;1.78;100.00
57628;BME280;43451;49.060;10.616;2022-11-20T00:40:14;96200.41;;;1.79;100.00
57628;BME280;43451;49.060;10.616;2022-11-20T00:42:39;96200.31;;;1.92;100.00
57628;BME280;43451;49.060;10.616;2022-11-20T00:45:05;96203.56;;;2.01;100.00
57628;BME280;43451;49.060;10.616;2022-11-20T00:47:30;96192.59;;;1.90;100.00
57628;BME280;43451;49.060;10.616;2022-11-20T00:49:56;96202.53;;;1.90;100.00
57628;BME280;43451;49.060;10.616;2022-11-20T00:52:21;96206.31;;;2.04;100.00
57628;BME280;43451;49.060;10.616;2022-11-20T00:54:47;96196.75;;;2.03;100.00
57628;BME280;43451;49.060;10.616;2022-11-20T00:57:12;96204.88;;;1.91;100.00
57628;BME280;43451;49.060;10.616;2022-11-20T00:59:37;96203.06;;;1.95;100.00
57628;BME280;43451;49.060;10.616;2022-11-20T01:02:03;96210.25;;;1.91;100.00
57628;BME280;43451;49.060;10.616;2022-11-20T01:04:28;96207.91;;;1.90;100.00
57628;BME280;43451;49.060;10.616;2022-11-20T01:06:54;96211.88;;;1.96;100.00
57628;BME280;43451;49.060;10.616;2022-11-20T01:09:19;96209.88;;;1.93;100.00
57628;BME280;43451;49.060;10.616;2022-11-20T01:11:45;96213.94;;;1.86;100.00
57628;BME280;43451;49.060;10.616;2022-11-20T01:14:14;96223.63;;;2.07;100.00
57628;BME280;43451;49.060;10.616;2022-11-20T01:16:42;96225.09;;;2.04;100.00
57628;BME280;43451;49.060;10.616;2022-11-20T01:19:12;96221.88;;;1.99;100.00
57628;BME280;43451;49.060;10.616;2022-11-20T01:21:40;96219.56;;;1.97;100.00
57628;BME280;43451;49.060;10.616;2022-11-20T01:24:07;96223.28;;;1.93;100.00
57628;BME280;43451;49.060;10.616;2022-11-20T01:26:35;96217.50;;;1.91;100.00
57628;BME280;43451;49.060;10.616;2022-11-20T01:29:02;96221.38;;;1.93;100.00
57628;BME280;43451;49.060;10.616;2022-11-20T01:31:33;96227.16;;;1.95;100.00
57628;BME280;43451;49.060;10.616;2022-11-20T01:34:01;96223.34;;;1.96;100.00
57628;BME280;43451;49.060;10.616;2022-11-20T01:36:27;96213.06;;;1.98;100.00
57628;BME280;43451;49.060;10.616;2022-11-20T01:38:55;96214.28;;;2.01;100.00
57628;BME280;43451;49.060;10.616;2022-11-20T01:41:22;96212.75;;;2.00;100.00
57628;BME280;43451;49.060;10.616;2022-11-20T01:44:08;96209.25;;;1.99;100.00
57628;BME280;43451;49.060;10.616;2022-11-20T01:46:35;96213.94;;;2.02;100.00
57628;BME280;43451;49.060;10.616;2022-11-20T01:49:17;96215.22;;;2.08;100.00
57628;BME280;43451;49.060;10.616;2022-11-20T01:51:49;96201.47;;;2.10;100.00
57628;BME280;43451;49.060;10.616;2022-11-20T01:54:29;96199.22;;;2.12;100.00
57628;BME280;43451;49.060;10.616;2022-11-20T01:56:59;96202.69;;;2.13;100.00
57628;BME280;43451;49.060;10.616;2022-11-20T01:59:26;96202.34;;;2.14;100.00
57628;BME280;43451;49.060;10.616;2022-11-20T02:01:53;96198.53;;;2.15;100.00
57628;BME280;43451;49.060;10.616;2022-11-20T02:04:19;96196.28;;;2.17;100.00
57628;BME280;43451;49.060;10.616;2022-11-20T02:06:52;96203.19;;;2.18;100.00
57628;BME280;43451;49.060;10.616;2022-11-20T02:09:20;96192.47;;;2.18;100.00
57628;BME280;43451;49.060;10.616;2022-11-20T02:11:46;96190.91;;;2.17;100.00
57628;BME280;43451;49.060;10.616;2022-11-20T02:14:11;96193.25;;;2.19;100.00
57628;BME280;43451;49.060;10.616;2022-11-20T02:16:40;96197.56;;;2.23;100.00
57628;BME280;43451;49.060;10.616;2022-11-20T02:19:19;96187.28;;;2.25;100.00
57628;BME280;43451;49.060;10.616;2022-11-20T02:22:16;96194.63;;;2.28;100.00
57628;BME280;43451;49.060;10.616;2022-11-20T02:24:45;96185.09;;;2.31;100.00
57628;BME280;43451;49.060;10.616;2022-11-20T02:27:15;96186.66;;;2.32;100.00
57628;BME280;43451;49.060;10.616;2022-11-20T02:29:42;96184.38;;;2.34;100.00
57628;BME280;43451;49.060;10.616;2022-11-20T02:32:34;96186.59;;;2.28;100.00
57628;BME280;43451;49.060;10.616;2022-11-20T02:35:38;96187.34;;;2.29;100.00
57628;BME280;43451;49.060;10.616;2022-11-20T02:38:01;96180.94;;;2.33;100.00
57628;BME280;43451;49.060;10.616;2022-11-20T02:40:27;96181.78;;;2.38;100.00
57628;BME280;43451;49.060;10.616;2022-11-20T02:42:54;96182.66;;;2.42;100.00
57628;BME280;43451;49.060;10.616;2022-11-20T02:45:20;96185.41;;;2.45;100.00
57628;BME280;43451;49.060;10.616;2022-11-20T02:47:46;96181.66;;;2.50;100.00
57628;BME280;43451;49.060;10.616;2022-11-20T02:50:11;96179.84;;;2.54;100.00
57628;BME280;43451;49.060;10.616;2022-11-20T02:52:37;96178.69;;;2.55;100.00
57628;BME280;43451;49.060;10.616;2022-11-20T02:55:02;96183.34;;;2.58;100.00
57628;BME280;43451;49.060;10.616;2022-11-20T02:57:28;96185.75;;;2.63;100.00
57628;BME280;43451;49.060;10.616;2022-11-20T02:59:54;96186.16;;;2.65;100.00
57628;BME280;43451;49.060;10.616;2022-11-20T03:02:19;96182.44;;;2.70;100.00
57628;BME280;43451;49.060;10.616;2022-11-20T03:04:45;96180.94;;;2.72;100.00
57628;BME280;43451;49.060;10.616;2022-11-20T03:07:11;96180.59;;;2.74;100.00
57628;BME280;43451;49.060;10.616;2022-11-20T03:09:36;96171.78;;;2.73;100.00
57628;BME280;43451;49.060;10.616;2022-11-20T03:12:02;96179.13;;;2.76;100.00
57628;BME280;43451;49.060;10.616;2022-11-20T03:14:27;96165.28;;;2.74;100.00
57628;BME280;43451;49.060;10.616;2022-11-20T03:16:53;96171.84;;;2.77;100.00
57628;BME280;43451;49.060;10.616;2022-11-20T03:19:18;96164.56;;;2.77;100.00
57628;BME280;43451;49.060;10.616;2022-11-20T03:21:44;96164.56;;;2.77;100.00
57628;BME280;43451;49.060;10.616;2022-11-20T03:24:09;96167.69;;;2.79;100.00
57628;BME280;43451;49.060;10.616;2022-11-20T03:26:35;96165.84;;;2.84;100.00
57628;BME280;43451;49.060;10.616;2022-11-20T03:29:03;96165.91;;;2.87;100.00
57628;BME280;43451;49.060;10.616;2022-11-20T03:31:37;96167.94;;;2.94;100.00
57628;BME280;43451;49.060;10.616;2022-11-20T03:34:06;96160.47;;;3.03;100.00
57628;BME280;43451;49.060;10.616;2022-11-20T03:36:32;96159.88;;;3.13;100.00
57628;BME280;43451;49.060;10.616;2022-11-20T03:38:57;96154.56;;;3.17;100.00
57628;BME280;43451;49.060;10.616;2022-11-20T03:41:28;96156.19;;;3.21;100.00
57628;BME280;43451;49.060;10.616;2022-11-20T03:44:00;96158.22;;;3.28;100.00
57628;BME280;43451;49.060;10.616;2022-11-20T03:46:26;96162.03;;;3.27;100.00
57628;BME280;43451;49.060;10.616;2022-11-20T03:48:52;96159.47;;;3.34;100.00
57628;BME280;43451;49.060;10.616;2022-11-20T03:51:21;96153.78;;;3.39;100.00
57628;BME280;43451;49.060;10.616;2022-11-20T03:53:47;96160.94;;;3.55;100.00
57628;BME280;43451;49.060;10.616;2022-11-20T03:56:15;96158.31;;;3.58;100.00
57628;BME280;43451;49.060;10.616;2022-11-20T03:58:42;96154.63;;;3.66;100.00
57628;BME280;43451;49.060;10.616;2022-11-20T04:01:13;96144.34;;;3.72;100.00
57628;BME280;43451;49.060;10.616;2022-11-20T04:03:40;96146.13;;;3.64;100.00
57628;BME280;43451;49.060;10.616;2022-11-20T04:06:09;96150.69;;;3.60;100.00
57628;BME280;43451;49.060;10.616;2022-11-20T04:08:35;96152.47;;;3.76;100.00
57628;BME280;43451;49.060;10.616;2022-11-20T04:11:15;96158.03;;;3.63;100.00
57628;BME280;43451;49.060;10.616;2022-11-20T04:13:42;96170.69;;;3.63;100.00
57628;BME280;43451;49.060;10.616;2022-11-20T04:16:10;96163.81;;;3.65;100.00
57628;BME280;43451;49.060;10.616;2022-11-20T04:18:36;96167.22;;;3.62;100.00
57628;BME280;43451;49.060;10.616;2022-11-20T04:21:03;96156.09;;;3.64;100.00
57628;BME280;43451;49.060;10.616;2022-11-20T04:23:29;96159.22;;;3.66;100.00
57628;BME280;43451;49.060;10.616;2022-11-20T04:26:00;96152.88;;;3.78;100.00
57628;BME280;43451;49.060;10.616;2022-11-20T04:28:26;96154.53;;;3.86;100.00
57628;BME280;43451;49.060;10.616;2022-11-20T04:30:51;96157.22;;;3.86;100.00
57628;BME280;43451;49.060;10.616;2022-11-20T04:33:17;96155.72;;;3.88;100.00
57628;BME280;43451;49.060;10.616;2022-11-20T04:35:42;96145.06;;;3.95;100.00
57628;BME280;43451;49.060;10.616;2022-11-20T04:38:10;96142.03;;;3.97;100.00
57628;BME280;43451;49.060;10.616;2022-11-20T04:40:35;96142.81;;;3.98;100.00
57628;BME280;43451;49.060;10.616;2022-11-20T04:43:00;96158.97;;;4.01;100.00
57628;BME280;43451;49.060;10.616;2022-11-20T04:45:26;96152.16;;;4.07;100.00
57628;BME280;43451;49.060;10.616;2022-11-20T04:47:51;96144.44;;;4.06;100.00
57628;BME280;43451;49.060;10.616;2022-11-20T04:50:17;96142.19;;;4.08;100.00
57628;BME280;43451;49.060;10.616;2022-11-20T04:52:43;96136.84;;;4.11;100.00
57628;BME280;43451;49.060;10.616;2022-11-20T04:55:08;96143.00;;;4.12;100.00
57628;BME280;43451;49.060;10.616;2022-11-20T04:57:34;96154.16;;;4.14;100.00
57628;BME280;43451;49.060;10.616;2022-11-20T04:59:59;96147.38;;;4.24;100.00
57628;BME280;43451;49.060;10.616;2022-11-20T05:02:25;96153.41;;;4.13;100.00
57628;BME280;43451;49.060;10.616;2022-11-20T05:04:50;96155.09;;;4.25;100.00
57628;BME280;43451;49.060;10.616;2022-11-20T05:07:15;96146.88;;;4.14;100.00
57628;BME280;43451;49.060;10.616;2022-11-20T05:09:41;96146.00;;;4.07;100.00
57628;BME280;43451;49.060;10.616;2022-11-20T05:12:09;96143.78;;;4.12;100.00
57628;BME280;43451;49.060;10.616;2022-11-20T05:14:35;96149.47;;;4.07;100.00
57628;BME280;43451;49.060;10.616;2022-11-20T05:17:00;96143.66;;;4.05;100.00
57628;BME280;43451;49.060;10.616;2022-11-20T05:19:26;96143.06;;;4.15;100.00
57628;BME280;43451;49.060;10.616;2022-11-20T05:21:51;96146.81;;;4.11;100.00
57628;BME280;43451;49.060;10.616;2022-11-20T05:24:17;96145.00;;;4.18;100.00
57628;BME280;43451;49.060;10.616;2022-11-20T05:26:42;96145.41;;;4.21;100.00
57628;BME280;43451;49.060;10.616;2022-11-20T05:29:10;96140.78;;;4.17;100.00
57628;BME280;43451;49.060;10.616;2022-11-20T05:31:36;96143.41;;;4.14;100.00
57628;BME280;43451;49.060;10.616;2022-11-20T05:34:02;96147.25;;;4.13;100.00
57628;BME280;43451;49.060;10.616;2022-11-20T05:36:27;96144.91;;;4.11;100.00
57628;BME280;43451;49.060;10.616;2022-11-20T05:38:53;96140.03;;;4.21;100.00
57628;BME280;43451;49.060;10.616;2022-11-20T05:41:20;96144.59;;;4.16;100.00
57628;BME280;43451;49.060;10.616;2022-11-20T05:43:47;96143.41;;;4.14;100.00
57628;BME280;43451;49.060;10.616;2022-11-20T05:46:14;96139.53;;;4.11;100.00
57628;BME280;43451;49.060;10.616;2022-11-20T05:48:41;96141.75;;;4.06;100.00
57628;BME280;43451;49.060;10.616;2022-11-20T05:51:09;96142.91;;;4.05;100.00
57628;BME280;43451;49.060;10.616;2022-11-20T05:53:35;96146.88;;;4.14;100.00
57628;BME280;43451;49.060;10.616;2022-11-20T05:56:06;96149.81;;;4.06;100.00
57628;BME280;43451;49.060;10.616;2022-11-20T05:58:33;96150.38;;;4.18;100.00
57628;BME280;43451;49.060;10.616;2022-11-20T06:01:10;96144.34;;;4.25;100.00
57628;BME280;43451;49.060;10.616;2022-11-20T06:03:36;96148.06;;;4.17;100.00
57628;BME280;43451;49.060;10.616;2022-11-20T06:06:03;96150.31;;;4.15;100.00
57628;BME280;43451;49.060;10.616;2022-11-20T06:08:30;96151.00;;;4.08;100.00
57628;BME280;43451;49.060;10.616;2022-11-20T06:10:56;96149.81;;;4.06;100.00
57628;BME280;43451;49.060;10.616;2022-11-20T06:13:21;96166.75;;;4.06;100.00
57628;BME280;43451;49.060;10.616;2022-11-20T06:15:51;96151.72;;;4.05;100.00
57628;BME280;43451;49.060;10.616;2022-11-20T06:18:17;96153.69;;;4.08;100.00
57628;BME280;43451;49.060;10.616;2022-11-20T06:20:44;96157.47;;;4.04;100.00
57628;BME280;43451;49.060;10.616;2022-11-20T06:23:09;96155.56;;;4.04;100.00
57628;BME280;43451;49.060;10.616;2022-11-20T06:25:42;96160.22;;;4.07;100.00
57628;BME280;43451;49.060;10.616;2022-11-20T06:28:08;96159.13;;;4.12;100.00
57628;BME280;43451;49.060;10.616;2022-11-20T06:30:34;96162.13;;;4.07;100.00
57628;BME280;43451;49.060;10.616;2022-11-20T06:32:59;96155.19;;;4.06;100.00
57628;BME280;43451;49.060;10.616;2022-11-20T06:35:25;96149.47;;;4.07;100.00
57628;BME280;43451;49.060;10.616;2022-11-20T06:37:50;96155.13;;;4.02;100.00
57628;BME280;43451;49.060;10.616;2022-11-20T06:40:16;96160.31;;;4.14;100.00
57628;BME280;43451;49.060;10.616;2022-11-20T06:42:41;96164.50;;;4.12;100.00
57628;BME280;43451;49.060;10.616;2022-11-20T06:45:07;96153.69;;;4.08;100.00
57628;BME280;43451;49.060;10.616;2022-11-20T06:47:33;96159.91;;;4.12;100.00
57628;BME280;43451;49.060;10.616;2022-11-20T06:49:58;96164.50;;;4.12;100.00
57628;BME280;43451;49.060;10.616;2022-11-20T06:52:24;96169.09;;;4.11;100.00
57628;BME280;43451;49.060;10.616;2022-11-20T06:54:49;96163.41;;;4.16;100.00
57628;BME280;43451;49.060;10.616;2022-11-20T06:57:15;96168.31;;;4.11;100.00
57628;BME280;43451;49.060;10.616;2022-11-20T06:59:40;96162.91;;;4.07;100.00
57628;BME280;43451;49.060;10.616;2022-11-20T07:02:09;96179.84;;;4.11;100.00
57628;BME280;43451;49.060;10.616;2022-11-20T07:04:35;96169.81;;;4.08;100.00
57628;BME280;43451;49.060;10.616;2022-11-20T07:07:01;96174.84;;;4.10;100.00
57628;BME280;43451;49.060;10.616;2022-11-20T07:09:26;96181.28;;;4.05;100.00
57628;BME280;43451;49.060;10.616;2022-11-20T07:11:51;96181.25;;;4.02;100.00
57628;BME280;43451;49.060;10.616;2022-11-20T07:14:17;96181.34;;;4.09;100.00
57628;BME280;43451;49.060;10.616;2022-11-20T07:16:42;96184.41;;;4.07;100.00
57628;BME280;43451;49.060;10.616;2022-11-20T07:19:08;96188.28;;;4.10;100.00
57628;BME280;43451;49.060;10.616;2022-11-20T07:21:33;96191.44;;;4.15;100.00
57628;BME280;43451;49.060;10.616;2022-11-20T07:23:59;96196.88;;;4.19;100.00
57628;BME280;43451;49.060;10.616;2022-11-20T07:26:24;96188.34;;;4.13;100.00
57628;BME280;43451;49.060;10.616;2022-11-20T07:28:49;96191.38;;;4.12;100.00
57628;BME280;43451;49.060;10.616;2022-11-20T07:31:15;96196.44;;;4.17;100.00
57628;BME280;43451;49.060;10.616;2022-11-20T07:33:40;96196.81;;;4.15;100.00
57628;BME280;43451;49.060;10.616;2022-11-20T07:36:06;96201.34;;;4.11;100.00
57628;BME280;43451;49.060;10.616;2022-11-20T07:38:31;96205.63;;;4.12;100.00
57628;BME280;43451;49.060;10.616;2022-11-20T07:40:57;96200.22;;;4.12;100.00
57628;BME280;43451;49.060;10.616;2022-11-20T07:43:23;96214.84;;;4.15;100.00
57628;BME280;43451;49.060;10.616;2022-11-20T07:45:50;96195.97;;;4.11;100.00
57628;BME280;43451;49.060;10.616;2022-11-20T07:48:15;96202.94;;;4.12;100.00
57628;BME280;43451;49.060;10.616;2022-11-20T07:50:40;96197.53;;;4.12;100.00
57628;BME280;43451;49.060;10.616;2022-11-20T07:53:06;96200.63;;;4.14;100.00
57628;BME280;43451;49.060;10.616;2022-11-20T07:55:32;96197.66;;;4.19;100.00
57628;BME280;43451;49.060;10.616;2022-11-20T07:57:58;96197.59;;;4.16;100.00
57628;BME280;43451;49.060;10.616;2022-11-20T08:00:24;96198.38;;;4.16;100.00
57628;BME280;43451;49.060;10.616;2022-11-20T08:02:50;96197.66;;;4.19;100.00
57628;BME280;43451;49.060;10.616;2022-11-20T08:05:16;96200.00;;;4.25;100.00
57628;BME280;43451;49.060;10.616;2022-11-20T08:07:43;96205.03;;;4.26;100.00
57628;BME280;43451;49.060;10.616;2022-11-20T08:10:11;96202.38;;;4.30;100.00
57628;BME280;43451;49.060;10.616;2022-11-20T08:12:43;96199.28;;;4.28;100.00
57628;BME280;43451;49.060;10.616;2022-11-20T08:15:28;96205.13;;;4.33;100.00
57628;BME280;43451;49.060;10.616;2022-11-20T08:17:59;96205.50;;;4.32;100.00
57628;BME280;43451;49.060;10.616;2022-11-20T08:20:25;96198.69;;;4.38;100.00
57628;BME280;43451;49.060;10.616;2022-11-20T08:22:50;96208.72;;;4.41;100.00
57628;BME280;43451;49.060;10.616;2022-11-20T08:25:16;96206.31;;;4.36;100.00
57628;BME280;43451;49.060;10.616;2022-11-20T08:27:41;96207.91;;;4.40;100.00
57628;BME280;43451;49.060;10.616;2022-11-20T08:30:07;96199.56;;;4.49;100.00
57628;BME280;43451;49.060;10.616;2022-11-20T08:32:33;96209.09;;;4.43;100.00
57628;BME280;43451;49.060;10.616;2022-11-20T08:35:00;96207.28;;;4.51;100.00
57628;BME280;43451;49.060;10.616;2022-11-20T08:37:26;96208.03;;;4.48;100.00
57628;BME280;43451;49.060;10.616;2022-11-20T08:39:51;96210.34;;;4.49;100.00
57628;BME280;43451;49.060;10.616;2022-11-20T08:42:18;96213.84;;;4.53;100.00
57628;BME280;43451;49.060;10.616;2022-11-20T08:44:44;96221.50;;;4.51;100.00
57628;BME280;43451;49.060;10.616;2022-11-20T08:47:09;96216.19;;;4.55;100.00
57628;BME280;43451;49.060;10.616;2022-11-20T08:49:35;96215.81;;;4.56;100.00
57628;BME280;43451;49.060;10.616;2022-11-20T08:52:00;96216.22;;;4.58;100.00
57628;BME280;43451;49.060;10.616;2022-11-20T08:54:25;96218.94;;;4.62;100.00
57628;BME280;43451;49.060;10.616;2022-11-20T08:56:51;96213.84;;;4.53;100.00
57628;BME280;43451;49.060;10.616;2022-11-20T08:59:16;96216.66;;;4.60;100.00
57628;BME280;43451;49.060;10.616;2022-11-20T09:01:42;96212.00;;;4.57;100.00
57628;BME280;43451;49.060;10.616;2022-11-20T09:04:07;96215.13;;;4.63;100.00
57628;BME280;43451;49.060;10.616;2022-11-20T09:06:33;96210.06;;;4.58;100.00
57628;BME280;43451;49.060;10.616;2022-11-20T09:08:58;96210.50;;;4.60;100.00
57628;BME280;43451;49.060;10.616;2022-11-20T09:11:24;96207.88;;;4.67;100.00
57628;BME280;43451;49.060;10.616;2022-11-20T09:13:50;96212.50;;;4.67;100.00
57628;BME280;43451;49.060;10.616;2022-11-20T09:16:15;96205.50;;;4.62;100.00
57628;BME280;43451;49.060;10.616;2022-11-20T09:18:41;96212.81;;;4.61;100.00
57628;BME280;43451;49.060;10.616;2022-11-20T09:21:10;96208.56;;;4.60;100.00
57628;BME280;43451;49.060;10.616;2022-11-20T09:23:36;96210.19;;;4.69;100.00
57628;BME280;43451;49.060;10.616;2022-11-20T09:26:13;96211.09;;;4.76;100.00
57628;BME280;43451;49.060;10.616;2022-11-20T09:28:39;96206.47;;;4.77;100.00
57628;BME280;43451;49.060;10.616;2022-11-20T09:31:06;96207.94;;;4.71;100.00
57628;BME280;43451;49.060;10.616;2022-11-20T09:33:32;96206.50;;;4.80;100.00
57628;BME280;43451;49.060;10.616;2022-11-20T09:35:57;96200.81;;;4.85;100.00
57628;BME280;43451;49.060;10.616;2022-11-20T09:38:23;96197.75;;;4.87;100.00
57628;BME280;43451;49.060;10.616;2022-11-20T09:40:57;96206.53;;;4.84;100.00
57628;BME280;43451;49.060;10.616;2022-11-20T09:44:04;96195.06;;;4.87;100.00
57628;BME280;43451;49.060;10.616;2022-11-20T09:46:43;96198.97;;;4.93;100.00
57628;BME280;43451;49.060;10.616;2022-11-20T09:54:19;96204.06;;;5.02;100.00
57628;BME280;43451;49.060;10.616;2022-11-20T09:56:49;96212.50;;;5.00;100.00
57628;BME280;43451;49.060;10.616;2022-11-20T09:59:56;96203.19;;;4.94;100.00
57628;BME280;43451;49.060;10.616;2022-11-20T10:04:55;96207.81;;;4.94;100.00
57628;BME280;43451;49.060;10.616;2022-11-20T10:07:43;96210.97;;;4.99;100.00
57628;BME280;43451;49.060;10.616;2022-11-20T10:10:19;96212.13;;;4.98;100.00
57628;BME280;43451;49.060;10.616;2022-11-20T10:15:36;96203.19;;;4.94;100.00
57628;BME280;43451;49.060;10.616;2022-11-20T10:29:18;96205.47;;;4.88;100.00
57628;BME280;43451;49.060;10.616;2022-11-20T10:32:02;96207.69;;;4.83;100.00
57628;BME280;43451;49.060;10.616;2022-11-20T10:37:33;96201.47;;;4.79;100.00
57628;BME280;43451;49.060;10.616;2022-11-20T10:40:20;96202.41;;;4.90;100.00
57628;BME280;43451;49.060;10.616;2022-11-20T10:42:50;96195.84;;;4.91;100.00
57628;BME280;43451;49.060;10.616;2022-11-20T10:45:28;96201.59;;;4.86;100.00
57628;BME280;43451;49.060;10.616;2022-11-20T10:50:35;96206.97;;;4.86;100.00
57628;BME280;43451;49.060;10.616;2022-11-20T10:55:39;96203.03;;;4.80;100.00
57628;BME280;43451;49.060;10.616;2022-11-20T11:01:21;96194.19;;;5.13;100.00
57628;BME280;43451;49.060;10.616;2022-11-20T11:03:49;96193.75;;;5.07;100.00
57628;BME280;43451;49.060;10.616;2022-11-20T11:08:49;96193.41;;;5.12;100.00
57628;BME280;43451;49.060;10.616;2022-11-20T11:11:30;96193.00;;;5.10;100.00
57628;BME280;43451;49.060;10.616;2022-11-20T11:14:10;96187.28;;;5.16;100.00
57628;BME280;43451;49.060;10.616;2022-11-20T11:16:52;96178.13;;;5.20;100.00
57628;BME280;43451;49.060;10.616;2022-11-20T11:19:18;96174.28;;;5.21;100.00
57628;BME280;43451;49.060;10.616;2022-11-20T11:21:49;96174.25;;;5.18;100.00
57628;BME280;43451;49.060;10.616;2022-11-20T11:24:29;96177.38;;;5.23;100.00
57628;BME280;43451;49.060;10.616;2022-11-20T11:27:03;96167.47;;;5.34;100.00
57628;BME280;43451;49.060;10.616;2022-11-20T11:29:32;96161.34;;;5.38;100.00
57628;BME280;43451;49.060;10.616;2022-11-20T11:32:07;96159.53;;;5.49;100.00
57628;BME280;43451;49.060;10.616;2022-11-20T11:34:32;96150.03;;;5.66;100.00
57628;BME280;43451;49.060;10.616;2022-11-20T11:36:59;96162.38;;;5.67;100.00
57628;BME280;43451;49.060;10.616;2022-11-20T11:39:27;96163.13;;;5.67;100.00
57628;BME280;43451;49.060;10.616;2022-11-20T11:41:53;96161.91;;;5.57;100.00
57628;BME280;43451;49.060;10.616;2022-11-20T11:44:21;96152.28;;;5.56;100.00
57628;BME280;43451;49.060;10.616;2022-11-20T11:47:22;96148.16;;;5.70;100.00
57628;BME280;43451;49.060;10.616;2022-11-20T11:49:49;96151.59;;;5.67;100.00
57628;BME280;43451;49.060;10.616;2022-11-20T11:52:25;96154.56;;;5.54;100.00
57628;BME280;43451;49.060;10.616;2022-11-20T11:54:54;96154.56;;;5.54;100.00
57628;BME280;43451;49.060;10.616;2022-11-20T11:57:31;96142.72;;;5.63;100.00
57628;BME280;43451;49.060;10.616;2022-11-20T12:00:01;96146.84;;;5.49;100.00
57628;BME280;43451;49.060;10.616;2022-11-20T12:07:51;96135.28;;;5.49;100.00
57628;BME280;43451;49.060;10.616;2022-11-20T12:12:55;96136.09;;;5.53;100.00
57628;BME280;43451;49.060;10.616;2022-11-20T12:15:33;96132.25;;;5.54;100.00
57628;BME280;43451;49.060;10.616;2022-11-20T12:18:00;96134.63;;;5.63;100.00
57628;BME280;43451;49.060;10.616;2022-11-20T12:20:34;96135.41;;;5.63;100.00
57628;BME280;43451;49.060;10.616;2022-11-20T12:23:29;96134.63;;;5.63;100.00
57628;BME280;43451;49.060;10.616;2022-11-20T12:26:05;96126.09;;;5.53;100.00
57628;BME280;43451;49.060;10.616;2022-11-20T12:37:04;96125.34;;;5.56;100.00
57628;BME280;43451;49.060;10.616;2022-11-20T12:39:55;96123.88;;;5.70;100.00
57628;BME280;43451;49.060;10.616;2022-11-20T12:45:56;96137.69;;;5.61;100.00
57628;BME280;43451;49.060;10.616;2022-11-20T12:48:47;96131.50;;;5.61;100.00
57628;BME280;43451;49.060;10.616;2022-11-20T12:54:02;96136.88;;;5.57;100.00
57628;BME280;43451;49.060;10.616;2022-11-20T13:07:19;96122.69;;;5.64;100.00
57628;BME280;43451;49.060;10.616;2022-11-20T13:09:47;96122.72;;;5.67;100.00
57628;BME280;43451;49.060;10.616;2022-11-20T13:12:23;96122.34;;;5.69;100.00
57628;BME280;43451;49.060;10.616;2022-11-20T13:14:56;96113.78;;;5.56;100.00
57628;BME280;43451;49.060;10.616;2022-11-20T13:17:34;96116.09;;;5.57;100.00
57628;BME280;43451;49.060;10.616;2022-11-20T13:20:03;96116.78;;;5.47;100.00
57628;BME280;43451;49.060;10.616;2022-11-20T13:22:48;96130.59;;;5.42;100.00
57628;BME280;43451;49.060;10.616;2022-11-20T13:25:26;96119.19;;;5.59;100.00
57628;BME280;43451;49.060;10.616;2022-11-20T13:27:54;96118.47;;;5.63;100.00
57628;BME280;43451;49.060;10.616;2022-11-20T13:30:22;96121.16;;;5.63;100.00
57628;BME280;43451;49.060;10.616;2022-11-20T13:32:58;96125.34;;;5.60;100.00
57628;BME280;43451;49.060;10.616;2022-11-20T13:35:41;96120.00;;;5.64;100.00
57628;BME280;43451;49.060;10.616;2022-11-20T13:38:14;96130.38;;;5.62;100.00
57628;BME280;43451;49.060;10.616;2022-11-20T13:41:00;96126.94;;;5.65;100.00
57628;BME280;43451;49.060;10.616;2022-11-20T13:43:48;96114.16;;;5.58;100.00
57628;BME280;43451;49.060;10.616;2022-11-20T13:46:13;96127.72;;;5.65;100.00
57628;BME280;43451;49.060;10.616;2022-11-20T13:48:45;96118.53;;;5.77;100.00
57628;BME280;43451;49.060;10.616;2022-11-20T13:54:34;96114.66;;;5.71;100.00
57628;BME280;43451;49.060;10.616;2022-11-20T14:02:20;96114.28;;;5.69;100.00
57628;BME280;43451;49.060;10.616;2022-11-20T14:04:52;96116.59;;;5.74;100.00
57628;BME280;43451;49.060;10.616;2022-11-20T14:07:21;96125.38;;;5.64;100.00
57628;BME280;43451;49.060;10.616;2022-11-20T14:09:52;96123.09;;;5.66;100.00
57628;BME280;43451;49.060;10.616;2022-11-20T14:12:20;96118.41;;;5.55;100.00
57628;BME280;43451;49.060;10.616;2022-11-20T14:14:52;96120.75;;;5.61;100.00
57628;BME280;43451;49.060;10.616;2022-11-20T14:17:21;96119.16;;;5.52;100.00